Time;durP1;ratioP1;P1;durP2;ratioP2;P2;SDS_P1;SDS_P2;PMS_P1;PMS_P2;Temp;Humidity;BMP_temperature;BMP_pressure;BME280_temperature;BME280_humidity;BME280_pressure;Samples;Min_cycle;Max_cycle;Signal;HPM_P1;HPM_P2
2023/01/26 00:01:28;;;;;;;3.90;3.40;;;22.10;52.90;;;;;;4929788;29;21035;-68
2023/01/26 00:03:57;;;;;;;3.90;3.17;;;22.10;52.80;;;;;;4928189;29;20518;-68
2023/01/26 00:06:26;;;;;;;4.00;3.70;;;22.20;52.80;;;;;;4925923;29;21403;-68
2023/01/26 00:08:56;;;;;;;4.60;3.77;;;22.20;52.70;;;;;;4929352;29;20868;-67
2023/01/26 00:11:28;;;;;;;3.90;3.60;;;22.20;52.70;;;;;;4933231;29;20547;-67
2023/01/26 00:13:58;;;;;;;4.00;3.60;;;22.20;52.60;;;;;;4934190;29;20498;-67
2023/01/26 00:16:27;;;;;;;3.83;3.53;;;22.20;52.60;;;;;;4934233;29;20498;-67
2023/01/26 00:18:56;;;;;;;4.30;3.93;;;22.20;52.60;;;;;;4933482;29;20551;-67
2023/01/26 00:21:25;;;;;;;3.30;3.00;;;22.20;52.60;;;;;;4928040;29;20488;-67
2023/01/26 00:23:53;;;;;;;3.70;3.37;;;22.20;52.50;;;;;;4931004;29;20472;-67
2023/01/26 00:26:23;;;;;;;4.10;3.70;;;22.20;52.50;;;;;;4932913;29;20460;-67
2023/01/26 00:28:54;;;;;;;3.93;3.50;;;22.10;52.50;;;;;;4932961;29;20593;-67
2023/01/26 00:31:24;;;;;;;3.63;3.30;;;22.10;52.50;;;;;;4934261;29;20559;-67
2023/01/26 00:33:54;;;;;;;3.63;3.33;;;22.10;52.50;;;;;;4935244;29;20455;-68
2023/01/26 00:36:22;;;;;;;3.90;3.60;;;22.10;52.50;;;;;;4928359;29;20496;-67
2023/01/26 00:38:51;;;;;;;3.80;3.40;;;22.10;52.50;;;;;;4926889;29;20463;-67
2023/01/26 00:44:06;;;;;;;3.70;3.40;;;22.10;52.50;;;;;;4928601;29;20629;-67
2023/01/26 00:46:36;;;;;;;3.73;3.47;;;22.10;52.50;;;;;;4933379;29;20621;-67
2023/01/26 00:49:07;;;;;;;3.60;3.20;;;22.10;52.50;;;;;;4934347;29;20454;-67
2023/01/26 00:51:35;;;;;;;4.73;3.10;;;22.10;52.50;;;;;;4934770;29;20542;-67
2023/01/26 00:54:04;;;;;;;3.40;3.20;;;22.10;52.60;;;;;;4923022;29;20887;-68
2023/01/26 00:56:32;;;;;;;3.07;2.87;;;22.10;52.50;;;;;;4931093;29;20571;-67
2023/01/26 00:59:00;;;;;;;3.47;3.17;;;22.10;52.50;;;;;;4930450;29;20531;-67
2023/01/26 01:01:30;;;;;;;3.30;3.00;;;22.10;52.50;;;;;;4933623;29;20460;-67
2023/01/26 01:03:58;;;;;;;4.03;3.73;;;22.10;52.50;;;;;;4927086;29;20500;-67
2023/01/26 01:06:26;;;;;;;2.97;2.77;;;22.10;52.50;;;;;;4932126;29;20599;-67
2023/01/26 01:08:54;;;;;;;3.63;3.23;;;22.10;52.50;;;;;;4924941;29;20463;-67
2023/01/26 01:11:23;;;;;;;3.80;3.30;;;22.10;52.50;;;;;;4931625;29;20555;-67
2023/01/26 01:13:51;;;;;;;3.20;2.90;;;22.10;52.50;;;;;;4941749;29;20518;-67
2023/01/26 01:16:19;;;;;;;3.37;3.07;;;22.10;52.40;;;;;;4933279;29;20562;-68
2023/01/26 01:18:52;;;;;;;3.03;2.83;;;22.10;52.40;;;;;;4927297;29;20468;-68
2023/01/26 01:21:21;;;;;;;3.37;3.07;;;22.10;52.40;;;;;;4931672;29;20479;-67
2023/01/26 01:23:49;;;;;;;3.30;3.00;;;22.10;52.40;;;;;;4932981;29;20468;-68
2023/01/26 01:26:18;;;;;;;3.53;3.23;;;22.10;52.40;;;;;;4931622;29;20463;-67
2023/01/26 01:28:46;;;;;;;3.20;2.90;;;22.10;52.40;;;;;;4931247;29;20467;-67
2023/01/26 01:31:15;;;;;;;3.50;3.20;;;22.10;52.40;;;;;;4918550;29;20547;-67
2023/01/26 01:33:44;;;;;;;3.60;3.30;;;22.10;52.40;;;;;;4932880;29;20550;-67
2023/01/26 01:36:15;;;;;;;3.23;3.00;;;22.10;52.30;;;;;;4933313;29;20509;-67
2023/01/26 01:38:45;;;;;;;3.43;3.13;;;22.10;52.30;;;;;;4929328;29;20522;-67
2023/01/26 01:41:14;;;;;;;3.27;2.97;;;22.10;52.30;;;;;;4924262;29;20495;-67
2023/01/26 01:43:42;;;;;;;2.97;2.77;;;22.10;52.30;;;;;;4932637;29;21034;-67
2023/01/26 01:46:18;;;;;;;3.10;2.80;;;22.10;52.30;;;;;;4931437;29;20468;-67
2023/01/26 01:48:53;;;;;;;2.83;2.63;;;22.10;52.30;;;;;;4932135;29;20502;-67
2023/01/26 01:51:31;;;;;;;2.70;2.50;;;22.10;52.20;;;;;;4925590;29;20491;-67
2023/01/26 01:54:03;;;;;;;2.20;2.10;;;22.10;52.20;;;;;;4926112;29;20558;-67
2023/01/26 01:56:34;;;;;;;3.17;2.97;;;22.10;52.20;;;;;;4932077;29;20522;-67
2023/01/26 01:59:04;;;;;;;2.77;2.57;;;22.10;52.20;;;;;;4928096;29;20958;-67
2023/01/26 02:01:32;;;;;;;2.50;2.30;;;22.10;52.20;;;;;;4928556;29;21011;-68
2023/01/26 02:04:04;;;;;;;2.90;2.70;;;22.10;52.20;;;;;;4944323;29;20473;-68
2023/01/26 02:06:36;;;;;;;3.00;2.80;;;22.10;52.20;;;;;;4927283;29;20951;-67
2023/01/26 02:09:05;;;;;;;3.20;2.63;;;22.10;52.10;;;;;;4931322;29;20471;-67
2023/01/26 02:11:38;;;;;;;2.43;2.23;;;22.10;52.20;;;;;;4933454;29;20467;-67
2023/01/26 02:14:09;;;;;;;2.87;2.67;;;22.10;52.20;;;;;;4923721;29;20582;-67
2023/01/26 02:16:38;;;;;;;2.73;2.53;;;22.10;52.10;;;;;;4929038;29;20884;-67
2023/01/26 02:19:15;;;;;;;2.30;2.10;;;22.10;52.10;;;;;;4931730;29;20563;-67
2023/01/26 02:21:47;;;;;;;3.00;2.70;;;22.10;52.10;;;;;;4944126;29;20855;-67
2023/01/26 02:24:22;;;;;;;2.83;2.63;;;22.10;52.10;;;;;;4940627;29;20541;-67
2023/01/26 02:26:53;;;;;;;2.47;2.27;;;22.10;52.10;;;;;;4928301;29;20487;-67
2023/01/26 02:29:22;;;;;;;3.10;2.80;;;22.10;52.10;;;;;;4929439;29;20531;-67
2023/01/26 02:31:52;;;;;;;3.20;2.40;;;22.10;52.10;;;;;;4930849;29;20471;-67
2023/01/26 02:34:23;;;;;;;2.90;2.57;;;22.10;52.10;;;;;;4926615;29;20476;-67
2023/01/26 02:36:59;;;;;;;3.30;2.80;;;22.10;52.10;;;;;;4924608;29;20641;-67
2023/01/26 02:39:41;;;;;;;2.70;2.50;;;22.10;52.00;;;;;;4926875;29;20464;-67
2023/01/26 02:44:56;;;;;;;2.23;2.13;;;22.10;52.00;;;;;;4924334;29;20457;-67
2023/01/26 02:47:24;;;;;;;2.67;2.47;;;22.10;52.00;;;;;;4930849;29;20465;-67
2023/01/26 02:49:51;;;;;;;3.10;2.80;;;22.10;52.00;;;;;;4930917;29;20957;-67
2023/01/26 02:52:22;;;;;;;2.33;2.13;;;22.10;52.00;;;;;;4925813;29;20487;-67
2023/01/26 02:55:25;;;;;;;2.77;2.40;;;22.10;52.00;;;;;;4932385;29;20452;-67
2023/01/26 02:57:56;;;;;;;2.90;2.70;;;22.10;52.00;;;;;;4919589;29;20500;-67
2023/01/26 03:00:26;;;;;;;2.20;2.03;;;22.10;52.00;;;;;;4929324;29;20470;-67
2023/01/26 03:02:57;;;;;;;1.83;1.73;;;22.10;52.00;;;;;;4931279;29;20492;-67
2023/01/26 03:05:26;;;;;;;2.30;2.10;;;22.10;51.90;;;;;;4932328;29;20459;-67
2023/01/26 03:07:55;;;;;;;2.17;2.07;;;22.10;51.90;;;;;;4932959;29;20473;-67
2023/01/26 03:10:27;;;;;;;3.27;2.70;;;22.10;51.90;;;;;;4922925;29;20583;-67
2023/01/26 03:12:57;;;;;;;2.20;2.10;;;22.10;51.90;;;;;;4934550;29;20533;-67
2023/01/26 03:15:41;;;;;;;2.73;2.53;;;22.10;51.90;;;;;;4932419;29;21606;-67
2023/01/26 03:29:33;;;;;;;2.50;2.30;;;22.10;51.90;;;;;;4876830;29;20929;-67
2023/01/26 03:32:02;;;;;;;1.73;1.60;;;22.10;51.80;;;;;;4920409;29;20475;-67
2023/01/26 03:34:31;;;;;;;1.97;1.87;;;22.10;51.80;;;;;;4926760;29;20465;-67
2023/01/26 03:36:59;;;;;;;2.27;2.17;;;22.10;51.80;;;;;;4931706;29;20468;-67
2023/01/26 03:56:22;;;;;;;1.73;1.63;;;22.10;51.70;;;;;;4931592;29;20474;-67
2023/01/26 03:58:54;;;;;;;2.13;1.93;;;22.10;51.70;;;;;;4928307;29;20473;-67
2023/01/26 04:01:27;;;;;;;2.10;2.00;;;22.10;51.70;;;;;;4922538;29;20461;-67
2023/01/26 04:09:35;;;;;;;2.30;2.10;;;22.10;51.70;;;;;;4933219;29;20459;-67
2023/01/26 04:12:04;;;;;;;2.33;2.13;;;22.10;51.70;;;;;;4934791;29;20562;-67
2023/01/26 04:22:59;;;;;;;2.10;1.90;;;22.10;51.60;;;;;;4932724;29;20813;-67
2023/01/26 04:25:28;;;;;;;1.80;1.70;;;22.10;51.60;;;;;;4923434;29;20476;-67
2023/01/26 04:27:58;;;;;;;2.17;1.80;;;22.10;51.60;;;;;;4924180;29;20546;-67
2023/01/26 04:30:26;;;;;;;1.87;1.77;;;22.10;51.60;;;;;;4922174;29;20528;-67
2023/01/26 04:32:55;;;;;;;1.83;1.70;;;22.10;51.60;;;;;;4928647;29;20563;-67
2023/01/26 04:35:24;;;;;;;2.87;2.33;;;22.10;51.60;;;;;;4933520;29;20482;-67
2023/01/26 04:37:52;;;;;;;1.93;1.83;;;22.10;51.60;;;;;;4931203;29;20484;-67
2023/01/26 04:40:21;;;;;;;1.90;1.80;;;22.10;51.50;;;;;;4919438;29;20472;-67
2023/01/26 04:42:49;;;;;;;2.13;2.03;;;22.10;51.60;;;;;;4922711;29;20472;-67
2023/01/26 04:45:18;;;;;;;2.00;1.80;;;22.10;51.60;;;;;;4922450;29;20546;-67
2023/01/26 04:47:46;;;;;;;2.57;1.90;;;22.10;51.50;;;;;;4930755;29;20456;-67
2023/01/26 04:50:18;;;;;;;1.73;1.63;;;22.10;51.50;;;;;;4933841;29;20516;-67
2023/01/26 04:52:47;;;;;;;2.00;1.90;;;22.10;51.50;;;;;;4932773;29;20591;-67
2023/01/26 04:55:16;;;;;;;1.70;1.60;;;22.10;51.50;;;;;;4922837;29;20465;-67
2023/01/26 04:57:44;;;;;;;2.40;1.87;;;22.10;51.50;;;;;;4926816;29;20567;-65
2023/01/26 05:00:13;;;;;;;2.17;2.00;;;22.10;51.50;;;;;;4929610;29;20472;-66
2023/01/26 05:02:42;;;;;;;1.90;1.70;;;22.10;51.50;;;;;;4926574;29;20456;-65
2023/01/26 05:05:11;;;;;;;1.63;1.53;;;22.10;51.50;;;;;;4925700;29;20458;-65
2023/01/26 05:07:41;;;;;;;1.63;1.50;;;22.10;51.40;;;;;;4931993;29;20477;-66
2023/01/26 05:10:10;;;;;;;2.20;2.00;;;22.10;51.40;;;;;;4928372;29;20505;-66
2023/01/26 05:13:04;;;;;;;2.33;2.13;;;22.10;51.40;;;;;;4927433;29;21018;-65
2023/01/26 05:15:40;;;;;;;1.60;1.50;;;22.10;51.40;;;;;;4929468;29;20527;-65
2023/01/26 05:18:15;;;;;;;2.40;2.20;;;22.10;51.40;;;;;;4928064;29;20487;-66
2023/01/26 05:21:03;;;;;;;1.67;1.57;;;22.10;51.40;;;;;;4928046;29;20469;-66
2023/01/26 05:23:42;;;;;;;1.73;1.60;;;22.10;51.40;;;;;;4930581;29;20804;-67
2023/01/26 05:26:43;;;;;;;2.70;2.17;;;22.10;51.40;;;;;;4935126;29;20455;-67
2023/01/26 05:29:16;;;;;;;1.67;1.57;;;22.10;51.50;;;;;;4931915;29;20992;-66
2023/01/26 05:31:45;;;;;;;2.00;1.90;;;22.10;51.50;;;;;;4929577;29;20464;-66
2023/01/26 05:34:13;;;;;;;1.77;1.50;;;22.10;51.60;;;;;;4929189;29;20464;-66
2023/01/26 05:36:41;;;;;;;2.03;1.90;;;22.10;51.60;;;;;;4929356;29;20487;-67
2023/01/26 05:39:12;;;;;;;2.20;2.10;;;22.10;51.70;;;;;;4922405;29;20480;-67
2023/01/26 05:41:40;;;;;;;2.00;1.87;;;22.10;51.70;;;;;;4929001;29;20585;-67
2023/01/26 05:44:24;;;;;;;1.80;1.70;;;22.10;51.70;;;;;;4931534;29;20452;-66
2023/01/26 05:47:01;;;;;;;2.07;1.93;;;22.10;51.70;;;;;;4926209;29;20459;-66
2023/01/26 05:49:29;;;;;;;1.83;1.73;;;22.10;51.70;;;;;;4929550;29;20473;-67
2023/01/26 05:51:58;;;;;;;1.97;1.60;;;22.10;51.80;;;;;;4928578;29;20458;-67
2023/01/26 05:54:28;;;;;;;1.70;1.60;;;22.10;51.80;;;;;;4928215;29;20476;-64
2023/01/26 05:56:56;;;;;;;2.13;2.03;;;22.10;51.90;;;;;;4928400;29;20480;-62
2023/01/26 05:59:26;;;;;;;2.10;1.87;;;22.10;51.90;;;;;;4930096;29;20952;-63
2023/01/26 06:01:58;;;;;;;1.73;1.63;;;22.10;52.00;;;;;;4938350;28;20959;-64
2023/01/26 06:04:27;;;;;;;1.67;1.57;;;22.10;52.00;;;;;;4924993;29;20947;-65
2023/01/26 06:06:59;;;;;;;2.00;1.80;;;22.10;52.10;;;;;;4928697;29;20463;-64
2023/01/26 06:09:33;;;;;;;2.27;2.07;;;22.10;52.10;;;;;;4928663;29;20474;-65
2023/01/26 06:12:21;;;;;;;1.87;1.77;;;22.10;52.10;;;;;;4932586;29;20583;-65
2023/01/26 06:14:58;;;;;;;3.00;2.30;;;22.00;52.20;;;;;;4928434;29;20502;-65
2023/01/26 06:17:35;;;;;;;1.87;1.77;;;22.00;52.20;;;;;;4926784;29;20567;-65
2023/01/26 06:20:06;;;;;;;1.67;1.57;;;22.00;52.30;;;;;;4927861;29;20515;-65
2023/01/26 06:22:35;;;;;;;1.87;1.70;;;22.00;52.40;;;;;;4927744;29;20756;-65
2023/01/26 06:25:05;;;;;;;2.47;1.90;;;22.00;52.40;;;;;;4924372;29;20479;-65
2023/01/26 06:27:34;;;;;;;3.57;1.53;;;22.00;52.40;;;;;;4921826;29;20536;-65
2023/01/26 06:30:10;;;;;;;1.67;1.50;;;21.90;52.50;;;;;;4929856;29;20479;-65
2023/01/26 06:32:40;;;;;;;4.47;2.43;;;21.90;52.60;;;;;;4929983;29;20543;-65
2023/01/26 06:35:09;;;;;;;2.97;2.40;;;21.90;52.60;;;;;;4927321;29;20551;-65
2023/01/26 06:37:37;;;;;;;4.30;2.40;;;21.90;52.70;;;;;;4930066;29;20480;-65
2023/01/26 06:40:09;;;;;;;7.47;2.60;;;21.90;52.70;;;;;;4928337;29;20539;-67
2023/01/26 06:42:38;;;;;;;6.70;3.53;;;22.00;52.70;;;;;;4926388;29;21328;-65
2023/01/26 06:45:07;;;;;;;5.33;3.00;;;22.00;52.70;;;;;;4930307;29;20456;-63
2023/01/26 06:47:35;;;;;;;5.50;3.20;;;22.00;52.70;;;;;;4928203;29;20991;-63
2023/01/26 06:50:05;;;;;;;3.93;2.80;;;22.00;52.70;;;;;;4926297;29;20460;-63
2023/01/26 06:52:36;;;;;;;3.87;3.13;;;22.00;52.70;;;;;;4928104;29;20491;-64
2023/01/26 06:55:23;;;;;;;4.83;3.00;;;22.00;52.60;;;;;;4922440;29;20475;-64
2023/01/26 06:57:59;;;;;;;4.67;2.47;;;22.00;52.60;;;;;;4939392;29;20494;-64
2023/01/26 07:00:56;;;;;;;4.07;2.73;;;22.00;52.70;;;;;;4925233;29;20464;-64
2023/01/26 07:03:29;;;;;;;4.27;2.23;;;22.00;52.80;;;;;;4930564;29;20935;-65
2023/01/26 07:05:57;;;;;;;3.87;2.53;;;22.00;52.90;;;;;;4922025;29;20468;-65
2023/01/26 07:08:26;;;;;;;7.90;2.70;;;22.00;53.00;;;;;;4924062;29;20492;-65
2023/01/26 07:10:56;;;;;;;9.70;3.30;;;22.00;53.20;;;;;;4931701;29;20463;-65
2023/01/26 07:13:24;;;;;;;4.57;3.13;;;22.00;53.50;;;;;;4925685;29;21278;-64
2023/01/26 07:15:52;;;;;;;4.70;3.20;;;22.10;53.60;;;;;;4921910;29;20542;-64
2023/01/26 07:18:20;;;;;;;5.73;3.10;;;22.10;53.80;;;;;;4919186;29;20578;-64
2023/01/26 07:20:48;;;;;;;5.53;2.60;;;22.10;53.90;;;;;;4924285;29;20534;-64
2023/01/26 07:23:16;;;;;;;6.93;2.70;;;22.10;54.10;;;;;;4932528;29;20637;-64
2023/01/26 07:25:44;;;;;;;4.50;2.97;;;22.10;54.10;;;;;;4922401;29;20527;-65
2023/01/26 07:28:14;;;;;;;6.60;3.23;;;22.10;54.10;;;;;;4924378;29;20459;-64
2023/01/26 07:30:42;;;;;;;5.50;3.33;;;22.10;54.10;;;;;;4926663;29;20939;-65
2023/01/26 07:33:10;;;;;;;7.60;2.67;;;22.10;54.00;;;;;;4925530;29;20455;-65
2023/01/26 07:35:39;;;;;;;6.53;3.20;;;22.10;54.00;;;;;;4923895;29;20527;-69
2023/01/26 07:38:07;;;;;;;9.90;3.20;;;22.10;54.10;;;;;;4923081;29;20515;-68
2023/01/26 07:40:35;;;;;;;5.87;3.30;;;22.10;54.10;;;;;;4923106;29;20568;-67
2023/01/26 07:43:03;;;;;;;9.40;4.10;;;22.10;54.50;;;;;;4923115;29;20808;-65
2023/01/26 07:45:51;;;;;;;11.80;3.47;;;22.10;54.90;;;;;;4928665;29;20993;-66
2023/01/26 07:48:20;;;;;;;7.60;3.70;;;22.10;55.20;;;;;;4928909;29;20546;-67
2023/01/26 07:50:48;;;;;;;15.13;3.20;;;22.10;55.40;;;;;;4930735;29;21011;-65
2023/01/26 07:53:21;;;;;;;4.50;3.47;;;22.10;55.30;;;;;;4930083;29;20452;-66
2023/01/26 07:55:49;;;;;;;6.63;3.13;;;22.10;55.20;;;;;;4935339;29;20459;-66
2023/01/26 07:58:18;;;;;;;9.30;3.67;;;22.20;55.10;;;;;;4925766;29;20575;-66
2023/01/26 08:00:46;;;;;;;7.80;3.63;;;22.20;55.00;;;;;;4932033;29;20489;-66
2023/01/26 08:03:16;;;;;;;5.30;2.63;;;22.20;54.90;;;;;;4924743;29;20451;-66
2023/01/26 08:05:46;;;;;;;8.13;3.33;;;22.20;54.70;;;;;;4931376;29;20523;-66
2023/01/26 08:08:14;;;;;;;5.73;3.10;;;22.30;54.60;;;;;;4931193;29;20467;-66
2023/01/26 08:10:42;;;;;;;8.00;3.43;;;22.30;54.50;;;;;;4934246;29;20808;-66
2023/01/26 08:13:11;;;;;;;4.80;3.03;;;22.30;54.30;;;;;;4933898;29;20456;-67
2023/01/26 08:15:39;;;;;;;7.90;2.60;;;22.40;54.10;;;;;;4927150;29;20584;-65
2023/01/26 08:18:07;;;;;;;5.70;2.43;;;22.40;54.00;;;;;;4929070;29;20584;-66
2023/01/26 08:20:37;;;;;;;9.07;2.53;;;22.40;53.80;;;;;;4931345;29;20515;-67
2023/01/26 08:23:05;;;;;;;6.13;2.70;;;22.50;53.70;;;;;;4934498;29;20495;-66
2023/01/26 08:25:33;;;;;;;4.87;2.90;;;22.50;53.60;;;;;;4932111;29;20546;-66
2023/01/26 08:28:02;;;;;;;6.93;3.70;;;22.50;53.50;;;;;;4934914;29;20932;-66
2023/01/26 08:30:30;;;;;;;5.60;3.30;;;22.60;53.40;;;;;;4921496;29;20975;-64
2023/01/26 08:32:58;;;;;;;6.10;2.77;;;22.60;53.30;;;;;;4922060;29;20611;-66
2023/01/26 08:35:26;;;;;;;11.70;4.03;;;22.60;53.30;;;;;;4932641;29;20452;-65
2023/01/26 08:37:56;;;;;;;5.23;2.67;;;22.60;53.30;;;;;;4926427;29;20568;-66
2023/01/26 08:40:24;;;;;;;4.20;2.87;;;22.70;53.30;;;;;;4931083;29;20944;-66
2023/01/26 08:42:53;;;;;;;6.20;2.37;;;22.80;53.30;;;;;;4933694;29;20456;-66
2023/01/26 08:45:21;;;;;;;4.37;2.57;;;22.80;53.40;;;;;;4924966;29;20967;-66
2023/01/26 08:47:51;;;;;;;6.30;2.77;;;22.90;53.40;;;;;;4932376;29;20468;-67
2023/01/26 08:50:19;;;;;;;3.80;2.17;;;22.90;53.40;;;;;;4929451;29;20518;-66
2023/01/26 08:52:47;;;;;;;2.93;2.50;;;22.90;53.40;;;;;;4933436;29;21086;-66
2023/01/26 08:55:17;;;;;;;4.20;2.73;;;23.00;53.40;;;;;;4929653;29;21088;-66
2023/01/26 08:57:45;;;;;;;3.63;2.30;;;23.00;53.50;;;;;;4926112;29;20839;-66
2023/01/26 09:00:15;;;;;;;3.87;2.30;;;23.00;53.50;;;;;;4926437;29;20468;-65
2023/01/26 09:02:44;;;;;;;6.10;2.80;;;23.00;53.60;;;;;;4923756;29;20465;-66
2023/01/26 09:05:12;;;;;;;3.00;2.00;;;23.00;53.60;;;;;;4932197;29;20461;-66
2023/01/26 09:07:40;;;;;;;2.70;2.33;;;23.00;53.70;;;;;;4930342;29;20943;-66
2023/01/26 09:10:09;;;;;;;7.23;2.80;;;22.90;53.70;;;;;;4933357;29;20464;-66
2023/01/26 09:12:40;;;;;;;5.77;2.20;;;22.90;53.80;;;;;;4931207;29;20464;-65
2023/01/26 09:15:09;;;;;;;3.43;2.67;;;22.90;53.80;;;;;;4931096;29;20582;-66
2023/01/26 09:17:37;;;;;;;2.47;2.20;;;22.90;53.90;;;;;;4932667;29;20496;-66
2023/01/26 09:20:08;;;;;;;3.50;2.40;;;22.90;53.90;;;;;;4930822;29;20737;-67
2023/01/26 09:22:37;;;;;;;3.30;2.10;;;22.90;54.00;;;;;;4927939;29;20457;-66
2023/01/26 09:25:06;;;;;;;3.83;2.47;;;22.90;54.00;;;;;;4932389;29;20548;-66
2023/01/26 09:27:34;;;;;;;4.20;1.87;;;22.90;54.00;;;;;;4930159;29;20481;-66
2023/01/26 09:30:06;;;;;;;3.77;2.17;;;22.90;54.00;;;;;;4926202;29;20809;-66
2023/01/26 09:32:34;;;;;;;2.43;2.20;;;22.90;54.00;;;;;;4931092;29;20483;-66
2023/01/26 09:35:02;;;;;;;2.77;2.20;;;22.90;54.10;;;;;;4922121;29;20458;-67
2023/01/26 09:37:30;;;;;;;3.37;1.63;;;22.90;54.10;;;;;;4932491;29;20563;-66
2023/01/26 09:39:59;;;;;;;2.47;2.27;;;22.90;54.20;;;;;;4932793;29;20582;-66
2023/01/26 09:42:38;;;;;;;4.03;2.43;;;22.90;54.20;;;;;;4930251;29;20505;-66
2023/01/26 09:45:24;;;;;;;3.40;2.50;;;22.90;54.20;;;;;;4927785;29;20465;-67
2023/01/26 09:48:06;;;;;;;2.53;2.33;;;23.00;54.20;;;;;;4928163;29;20900;-68
2023/01/26 09:50:41;;;;;;;4.33;2.17;;;23.00;53.90;;;;;;4923031;29;20836;-65
2023/01/26 09:53:15;;;;;;;4.23;2.60;;;22.90;53.10;;;;;;4923137;29;20775;-65
2023/01/26 09:55:45;;;;;;;3.63;2.70;;;23.00;53.00;;;;;;4930761;29;20473;-66
2023/01/26 09:58:19;;;;;;;5.30;2.83;;;23.00;53.10;;;;;;4924257;29;20515;-66
2023/01/26 10:00:53;;;;;;;3.23;2.13;;;23.00;53.20;;;;;;4930233;29;20651;-66
2023/01/26 10:03:28;;;;;;;2.90;2.00;;;23.00;53.20;;;;;;4927642;29;21009;-66
2023/01/26 10:06:02;;;;;;;2.43;1.77;;;23.10;53.20;;;;;;4928604;29;20539;-67
2023/01/26 10:08:50;;;;;;;2.83;2.10;;;23.10;53.30;;;;;;4920982;29;20572;-66
2023/01/26 10:11:25;;;;;;;1.80;1.67;;;23.10;53.40;;;;;;4931633;29;20481;-66
2023/01/26 10:13:57;;;;;;;4.40;1.90;;;23.10;53.30;;;;;;4931468;29;20463;-70
2023/01/26 10:16:27;;;;;;;2.80;1.83;;;23.10;53.40;;;;;;4930968;29;20491;-66
2023/01/26 10:19:02;;;;;;;2.20;2.00;;;23.10;53.30;;;;;;4921934;29;20460;-76
2023/01/26 10:21:35;;;;;;;2.17;2.07;;;23.10;53.40;;;;;;4916868;29;20476;-65
2023/01/26 10:24:04;;;;;;;4.53;2.53;;;23.10;53.40;;;;;;4922105;29;20536;-65
2023/01/26 10:26:34;;;;;;;3.00;2.13;;;23.00;53.10;;;;;;4917663;29;20470;-67
2023/01/26 10:29:04;;;;;;;2.20;2.00;;;23.00;53.20;;;;;;4927766;29;20468;-65
2023/01/26 10:31:34;;;;;;;2.00;1.80;;;23.00;53.30;;;;;;4929031;29;20472;-66
2023/01/26 10:34:13;;;;;;;2.20;1.70;;;23.00;53.40;;;;;;4921506;29;20457;-67
2023/01/26 10:36:44;;;;;;;2.50;1.87;;;23.00;53.40;;;;;;4926754;29;20477;-68
2023/01/26 10:39:13;;;;;;;4.13;2.23;;;23.00;53.50;;;;;;4919942;29;20461;-67
2023/01/26 10:41:56;;;;;;;2.90;2.33;;;23.00;53.50;;;;;;4929236;29;20510;-67
2023/01/26 10:44:32;;;;;;;2.50;1.37;;;23.00;53.60;;;;;;4931966;29;20833;-67
2023/01/26 10:47:06;;;;;;;2.00;1.60;;;23.00;53.60;;;;;;4931619;29;20579;-72
2023/01/26 10:49:35;;;;;;;2.07;1.90;;;23.00;53.60;;;;;;4933006;29;20559;-70
2023/01/26 10:52:14;;;;;;;4.93;2.37;;;23.00;53.00;;;;;;4919863;29;20468;-67
2023/01/26 10:54:43;;;;;;;3.47;2.00;;;22.90;52.70;;;;;;4927220;29;20581;-68
2023/01/26 10:57:22;;;;;;;3.13;1.73;;;22.90;52.70;;;;;;4928345;29;20477;-68
2023/01/26 10:59:55;;;;;;;2.40;2.00;;;22.90;52.90;;;;;;4925558;29;20481;-68
2023/01/26 11:02:27;;;;;;;3.40;1.87;;;22.90;53.10;;;;;;4930504;29;20869;-68
2023/01/26 11:05:17;;;;;;;5.20;2.10;;;22.90;53.20;;;;;;4930623;29;20529;-67
2023/01/26 11:07:47;;;;;;;6.20;1.97;;;22.90;53.20;;;;;;4929499;29;20472;-67
2023/01/26 11:10:25;;;;;;;2.73;1.67;;;22.90;53.20;;;;;;4923592;29;20857;-68
2023/01/26 11:13:15;;;;;;;2.73;1.80;;;23.00;53.30;;;;;;4929820;29;20456;-68
2023/01/26 11:15:46;;;;;;;1.60;1.50;;;23.00;53.40;;;;;;4930762;29;20544;-68
2023/01/26 11:18:24;;;;;;;2.07;1.97;;;23.00;53.40;;;;;;4933325;29;20512;-67
2023/01/26 11:20:58;;;;;;;2.80;1.87;;;23.10;53.40;;;;;;4922876;29;20798;-68
2023/01/26 11:23:45;;;;;;;2.33;1.50;;;23.10;53.40;;;;;;4932743;29;20488;-67
2023/01/26 11:26:31;;;;;;;1.93;1.80;;;23.20;53.40;;;;;;4927320;29;20466;-67
2023/01/26 11:29:18;;;;;;;3.10;1.77;;;23.20;53.40;;;;;;4923273;29;20509;-67
2023/01/26 11:31:55;;;;;;;3.03;1.80;;;23.20;53.50;;;;;;4927670;29;20501;-67
2023/01/26 11:34:34;;;;;;;2.10;1.97;;;23.20;53.50;;;;;;4929510;29;20456;-68
2023/01/26 11:37:35;;;;;;;1.60;1.43;;;23.20;53.50;;;;;;4933867;29;20939;-79
2023/01/26 11:40:28;;;;;;;1.73;1.43;;;23.20;53.50;;;;;;4923917;29;20871;-69
2023/01/26 11:43:11;;;;;;;2.03;1.57;;;23.20;53.00;;;;;;4925615;29;20470;-71
2023/01/26 11:45:54;;;;;;;2.03;1.93;;;23.10;52.20;;;;;;4930414;29;20470;-72
2023/01/26 11:48:31;;;;;;;3.80;2.10;;;23.10;52.10;;;;;;4934345;29;20464;-71
2023/01/26 11:51:07;;;;;;;1.90;1.80;;;23.00;52.10;;;;;;4932821;29;20479;-69
2023/01/26 11:54:00;;;;;;;1.93;1.83;;;22.90;52.10;;;;;;4930044;29;20958;-70
2023/01/26 11:56:39;;;;;;;3.00;1.90;;;22.90;52.20;;;;;;4926030;29;20466;-70
2023/01/26 11:59:13;;;;;;;2.57;1.87;;;22.80;52.20;;;;;;4927644;29;20802;-70
2023/01/26 12:01:46;;;;;;;2.30;1.70;;;22.80;52.10;;;;;;4929680;29;20483;-68
2023/01/26 12:04:19;;;;;;;3.43;1.83;;;22.80;52.10;;;;;;4931602;29;20456;-70
2023/01/26 12:06:54;;;;;;;3.97;1.80;;;22.70;52.10;;;;;;4931510;29;20554;-70
2023/01/26 12:09:31;;;;;;;3.33;2.10;;;22.70;52.10;;;;;;4931894;29;20507;-70
2023/01/26 12:12:06;;;;;;;2.47;1.90;;;22.70;52.10;;;;;;4933148;29;20793;-70
2023/01/26 12:14:41;;;;;;;2.00;1.80;;;22.60;52.20;;;;;;4927167;29;20491;-69
2023/01/26 12:17:30;;;;;;;2.20;1.60;;;22.60;52.40;;;;;;4929074;29;20469;-70
2023/01/26 12:20:04;;;;;;;1.70;1.60;;;22.50;52.40;;;;;;4924548;29;20465;-69
2023/01/26 12:22:37;;;;;;;1.80;1.70;;;22.50;52.50;;;;;;4927868;29;20606;-70
2023/01/26 12:25:20;;;;;;;2.30;1.70;;;22.50;52.60;;;;;;4932373;29;20511;-70
2023/01/26 12:27:54;;;;;;;3.60;2.00;;;22.50;52.70;;;;;;4928161;29;20464;-70
2023/01/26 12:30:34;;;;;;;1.53;1.43;;;22.50;52.70;;;;;;4930114;29;20495;-70
2023/01/26 12:33:02;;;;;;;3.80;2.00;;;22.40;52.70;;;;;;4931619;29;20494;-70
2023/01/26 12:36:03;;;;;;;2.30;2.10;;;22.40;52.80;;;;;;4930816;29;20503;-70
2023/01/26 12:38:44;;;;;;;3.43;2.20;;;22.40;52.80;;;;;;4932779;29;20555;-70
2023/01/26 12:41:22;;;;;;;2.17;2.07;;;22.40;52.80;;;;;;4923762;29;21395;-70
2023/01/26 12:44:03;;;;;;;1.97;1.80;;;22.40;52.80;;;;;;4927392;29;20470;-70
2023/01/26 12:46:42;;;;;;;2.27;2.03;;;22.40;52.80;;;;;;4926638;29;21772;-71
2023/01/26 12:49:16;;;;;;;2.37;1.87;;;22.40;52.80;;;;;;4931332;29;20459;-71
2023/01/26 12:51:50;;;;;;;2.23;2.03;;;22.40;52.80;;;;;;4930721;29;20555;-71
2023/01/26 12:54:30;;;;;;;3.27;2.23;;;22.30;52.80;;;;;;4932055;29;20495;-71
2023/01/26 12:57:02;;;;;;;2.40;2.20;;;22.30;52.70;;;;;;4930547;29;20461;-71
2023/01/26 12:59:34;;;;;;;2.73;2.30;;;22.30;52.70;;;;;;4929950;29;20483;-72
2023/01/26 13:02:28;;;;;;;2.63;2.43;;;22.30;52.60;;;;;;4927836;29;20960;-72
2023/01/26 13:04:58;;;;;;;3.30;2.23;;;22.30;52.60;;;;;;4943290;29;20473;-72
2023/01/26 13:07:31;;;;;;;3.23;2.43;;;22.20;52.60;;;;;;4931418;29;20476;-72
2023/01/26 13:10:26;;;;;;;2.50;2.30;;;22.20;52.60;;;;;;4928161;29;20947;-71
2023/01/26 13:12:57;;;;;;;3.10;2.03;;;22.20;52.70;;;;;;4919774;29;20848;-67
2023/01/26 13:15:27;;;;;;;2.87;2.60;;;22.20;52.70;;;;;;4922656;29;20938;-67
2023/01/26 13:17:58;;;;;;;2.27;2.10;;;22.30;53.00;;;;;;4924947;29;20488;-68
2023/01/26 13:20:50;;;;;;;2.30;2.17;;;22.30;53.20;;;;;;4923199;29;20527;-68
2023/01/26 13:23:42;;;;;;;4.37;2.60;;;22.40;53.30;;;;;;4926375;29;20867;-65
2023/01/26 13:26:40;;;;;;;2.20;2.10;;;22.50;53.30;;;;;;4920210;29;20580;-65
2023/01/26 13:29:34;;;;;;;4.67;2.53;;;22.60;53.30;;;;;;4923624;29;20547;-66
2023/01/26 13:32:44;;;;;;;2.40;2.20;;;22.70;53.40;;;;;;4924125;29;20489;-67
2023/01/26 13:35:14;;;;;;;2.03;1.93;;;22.80;53.40;;;;;;4900084;29;20506;-67
2023/01/26 13:37:50;;;;;;;2.23;2.03;;;22.80;53.40;;;;;;4921211;29;20613;-68
2023/01/26 13:40:22;;;;;;;2.03;1.93;;;22.80;53.50;;;;;;4927295;29;20532;-67
2023/01/26 13:42:56;;;;;;;1.97;1.87;;;22.90;53.50;;;;;;4930199;29;20634;-67
2023/01/26 13:45:32;;;;;;;2.50;2.13;;;22.90;53.50;;;;;;4926669;29;20456;-66
2023/01/26 13:48:04;;;;;;;2.40;2.20;;;22.90;53.60;;;;;;4930158;29;20465;-67
2023/01/26 13:50:36;;;;;;;1.90;1.80;;;22.90;53.60;;;;;;4926651;29;20528;-67
2023/01/26 13:53:29;;;;;;;2.67;2.30;;;22.90;53.70;;;;;;4927994;29;20466;-67
2023/01/26 13:56:00;;;;;;;1.87;1.77;;;22.90;53.80;;;;;;4927417;29;20535;-66
2023/01/26 13:58:29;;;;;;;1.90;1.80;;;22.90;53.80;;;;;;4927124;29;20968;-66
2023/01/26 14:01:00;;;;;;;1.87;1.77;;;22.90;53.90;;;;;;4928361;29;20473;-67
2023/01/26 14:03:29;;;;;;;1.90;1.80;;;22.90;53.90;;;;;;4923865;29;20468;-66